createdAt,value
2022-08-16T00:03:50.367Z,6.03
2022-08-16T00:08:46.714Z,6.28
2022-08-16T00:13:53.918Z,5.95
2022-08-16T00:18:51.384Z,7.85
2022-08-16T00:28:45.443Z,6.22
2022-08-16T00:33:42.520Z,7.22
2022-08-16T00:38:46.704Z,6.75
2022-08-16T00:43:44.951Z,7.47
2022-08-16T00:48:45.732Z,8.35
2022-08-16T00:53:42.166Z,6.07
2022-08-16T00:58:46.139Z,6.53
2022-08-16T01:03:47.845Z,5.55
2022-08-16T01:08:50.204Z,6.35
2022-08-16T01:13:53.036Z,5.90
2022-08-16T01:18:55.360Z,6.05
2022-08-16T01:24:44.587Z,6.75
2022-08-16T01:29:57.820Z,6.00
2022-08-16T01:34:57.018Z,6.60
2022-08-16T01:39:53.489Z,6.65
2022-08-16T01:44:50.327Z,5.63
2022-08-16T01:51:05.189Z,6.43
2022-08-16T01:55:07.000Z,5.70
2022-08-16T02:00:10.454Z,6.22
2022-08-16T02:05:15.843Z,5.57
2022-08-16T02:10:12.636Z,5.22
2022-08-16T02:15:09.468Z,5.90
2022-08-16T02:20:11.584Z,5.87
2022-08-16T02:25:14.658Z,6.03
2022-08-16T02:30:36.648Z,6.82
2022-08-16T02:35:54.105Z,6.18
2022-08-16T02:45:51.076Z,6.10
2022-08-16T02:51:03.153Z,5.88
2022-08-16T02:56:05.292Z,5.68
2022-08-16T03:01:07.070Z,6.50
2022-08-16T03:06:04.232Z,5.78
2022-08-16T03:11:21.952Z,6.05
2022-08-16T03:16:38.145Z,5.63
2022-08-16T03:21:37.885Z,5.20
2022-08-16T03:26:35.131Z,6.05
2022-08-16T03:31:34.824Z,5.18
2022-08-16T03:36:36.971Z,5.60
2022-08-16T03:41:50.715Z,5.60
2022-08-16T03:46:50.170Z,5.05
2022-08-16T03:51:47.679Z,5.47
2022-08-16T03:56:56.984Z,5.80
2022-08-16T04:01:54.728Z,5.80
2022-08-16T04:06:51.274Z,5.72
2022-08-16T04:11:47.956Z,5.90
2022-08-16T04:16:48.598Z,6.60
2022-08-16T04:21:47.782Z,6.45
2022-08-16T04:26:45.981Z,5.80
2022-08-16T04:31:43.756Z,6.57
2022-08-16T04:36:40.255Z,6.05
2022-08-16T04:41:37.481Z,6.10
2022-08-16T04:47:00.955Z,5.88
2022-08-16T04:51:53.598Z,6.40
2022-08-16T04:56:52.119Z,6.03
2022-08-16T05:01:58.609Z,6.05
2022-08-16T05:06:55.835Z,6.55
2022-08-16T05:11:52.259Z,6.50
2022-08-16T05:16:53.628Z,5.85
2022-08-16T05:21:51.558Z,6.17
2022-08-16T05:26:51.247Z,5.93
2022-08-16T05:31:53.255Z,6.13
2022-08-16T05:36:51.526Z,5.38
2022-08-16T05:46:45.617Z,5.55
2022-08-16T05:51:46.400Z,5.38
2022-08-16T05:56:45.954Z,4.85
2022-08-16T06:01:46.707Z,5.60
2022-08-16T06:06:56.788Z,4.80
2022-08-16T06:11:53.725Z,4.60
2022-08-16T06:16:50.773Z,5.00
2022-08-16T06:26:57.965Z,4.28
2022-08-16T06:31:54.717Z,4.22
2022-08-16T06:36:59.597Z,4.75
2022-08-16T06:41:57.063Z,3.85
2022-08-16T06:46:54.244Z,5.05
2022-08-16T06:51:50.673Z,3.72
2022-08-16T06:56:53.953Z,4.15
2022-08-16T07:01:54.870Z,3.80
2022-08-16T07:06:51.744Z,3.70
2022-08-16T07:11:51.525Z,4.10
2022-08-16T07:16:48.759Z,4.25
2022-08-16T07:21:59.568Z,4.70
2022-08-16T07:26:56.550Z,4.97
2022-08-16T07:31:53.949Z,4.20
2022-08-16T07:36:57.829Z,5.22
2022-08-16T07:41:54.702Z,4.82
2022-08-16T07:46:55.441Z,5.20
2022-08-16T07:51:54.346Z,5.60
2022-08-16T07:56:53.128Z,4.28
2022-08-16T08:01:53.091Z,5.00
2022-08-16T08:06:51.125Z,5.25
2022-08-16T08:12:00.925Z,5.55
2022-08-16T08:16:58.996Z,5.07
2022-08-16T08:22:00.276Z,5.97
2022-08-16T08:26:59.133Z,5.65
2022-08-16T08:32:57.998Z,6.93
2022-08-16T08:37:22.555Z,5.88
2022-08-16T08:42:25.038Z,5.68
2022-08-16T08:47:23.384Z,6.00
2022-08-16T08:52:34.256Z,5.78
2022-08-16T08:57:32.274Z,6.53
2022-08-16T09:02:29.277Z,6.03
2022-08-16T09:07:25.669Z,5.07
2022-08-16T09:12:34.996Z,5.50
2022-08-16T09:17:49.212Z,5.35
2022-08-16T09:22:52.275Z,4.53
2022-08-16T09:27:56.878Z,4.13
2022-08-16T09:32:54.949Z,4.35
2022-08-16T09:43:05.868Z,3.35
2022-08-16T09:48:02.382Z,4.10
2022-08-16T09:52:59.559Z,3.55
2022-08-16T09:57:57.551Z,3.45
2022-08-16T10:02:54.389Z,3.10
2022-08-16T10:07:55.879Z,2.83
2022-08-16T10:13:11.539Z,3.33
2022-08-16T10:18:56.058Z,2.92
2022-08-16T10:23:28.707Z,3.50
2022-08-16T10:28:28.808Z,2.80
2022-08-16T10:33:29.458Z,3.90
2022-08-16T10:38:27.402Z,3.35
2022-08-16T10:43:24.172Z,3.45
2022-08-16T10:48:27.992Z,3.80
2022-08-16T10:53:32.937Z,3.60
2022-08-16T10:58:34.093Z,3.28
2022-08-16T11:03:42.166Z,3.65
2022-08-16T11:08:45.301Z,3.03
2022-08-16T11:14:06.087Z,3.67
2022-08-16T11:19:06.349Z,3.58
2022-08-16T11:24:39.950Z,3.35
2022-08-16T11:29:26.768Z,3.60
2022-08-16T11:34:23.272Z,2.85
2022-08-16T11:39:21.577Z,2.58
2022-08-16T11:44:20.423Z,2.92
2022-08-16T11:49:34.297Z,3.22
2022-08-16T11:54:36.146Z,2.80
2022-08-16T11:59:33.860Z,2.95
2022-08-16T12:04:34.112Z,3.20
2022-08-16T12:09:30.875Z,2.40
2022-08-16T12:14:28.168Z,2.28
2022-08-16T12:19:33.807Z,2.40
2022-08-16T12:24:31.736Z,2.58
2022-08-16T12:34:29.148Z,2.55
2022-08-16T12:39:28.857Z,2.33
2022-08-16T12:44:26.336Z,2.35
2022-08-16T12:49:27.600Z,3.00
2022-08-16T12:54:26.733Z,2.60
2022-08-16T12:59:23.533Z,2.63
2022-08-16T13:04:21.242Z,2.33
2022-08-16T13:09:26.647Z,2.33
2022-08-16T13:14:32.295Z,2.80
2022-08-16T13:19:55.969Z,2.38
2022-08-16T13:24:46.081Z,2.92
2022-08-16T13:29:43.864Z,2.67
2022-08-16T13:34:40.677Z,2.50
2022-08-16T13:39:38.274Z,2.97
2022-08-16T13:44:56.092Z,2.42
2022-08-16T13:49:53.539Z,2.85
2022-08-16T13:54:50.577Z,2.50
2022-08-16T13:59:50.158Z,2.30
2022-08-16T14:04:47.741Z,2.72
2022-08-16T14:10:01.307Z,2.75
2022-08-16T14:15:01.569Z,2.58
2022-08-16T14:19:59.978Z,2.25
2022-08-16T14:24:58.607Z,2.20
2022-08-16T14:29:57.085Z,2.10
2022-08-16T14:34:55.144Z,2.15
2022-08-16T14:39:52.937Z,2.20
2022-08-16T14:44:50.223Z,2.47
2022-08-16T14:49:46.581Z,2.78
2022-08-16T14:54:45.710Z,2.22
2022-08-16T14:59:45.514Z,2.30
2022-08-16T15:04:47.952Z,2.45
2022-08-16T15:09:59.865Z,2.40
2022-08-16T15:14:58.120Z,2.25
2022-08-16T15:19:56.062Z,2.28
2022-08-16T15:24:58.723Z,2.45
2022-08-16T15:29:55.677Z,2.22
2022-08-16T15:34:52.429Z,2.22
2022-08-16T15:40:00.438Z,2.53
2022-08-16T15:44:58.594Z,2.78
2022-08-16T15:49:56.071Z,2.40
2022-08-16T15:54:55.569Z,2.65
2022-08-16T15:59:59.035Z,2.78
2022-08-16T16:05:11.043Z,2.53
2022-08-16T16:10:13.270Z,2.67
2022-08-16T16:15:09.998Z,2.40
2022-08-16T16:20:13.803Z,2.50
2022-08-16T16:25:11.705Z,2.88
2022-08-16T16:30:33.128Z,3.10
2022-08-16T16:35:32.736Z,3.10
2022-08-16T16:40:32.631Z,2.38
2022-08-16T16:45:34.716Z,2.53
2022-08-16T16:50:33.371Z,2.72
2022-08-16T16:55:34.689Z,2.58
2022-08-16T17:00:37.919Z,2.70
2022-08-16T17:05:34.931Z,3.20
2022-08-16T17:10:46.185Z,2.80
2022-08-16T17:15:46.066Z,3.35
2022-08-16T17:20:48.971Z,2.58
2022-08-16T17:25:45.480Z,2.67
2022-08-16T17:30:50.218Z,2.42
2022-08-16T17:35:55.208Z,2.30
2022-08-16T17:40:58.834Z,2.58
2022-08-16T17:45:56.443Z,2.70
2022-08-16T17:50:54.510Z,2.78
2022-08-16T17:55:52.225Z,2.72
2022-08-16T18:00:48.802Z,2.95
2022-08-16T18:05:47.588Z,2.75
2022-08-16T18:10:44.011Z,2.30
2022-08-16T18:15:43.133Z,2.85
2022-08-16T18:20:57.932Z,2.42
2022-08-16T18:25:57.451Z,2.40
2022-08-16T18:31:00.288Z,2.47
2022-08-16T18:35:57.991Z,3.05
2022-08-16T18:40:54.689Z,2.60
2022-08-16T18:45:54.023Z,2.83
2022-08-16T18:50:59.129Z,2.92
2022-08-16T18:56:03.506Z,2.58
2022-08-16T19:00:59.925Z,3.35
2022-08-16T19:06:00.629Z,2.92
2022-08-16T19:10:57.077Z,2.88
2022-08-16T19:15:55.874Z,2.42
2022-08-16T19:20:52.993Z,2.63
2022-08-16T19:25:54.392Z,3.08
2022-08-16T19:30:51.178Z,2.95
2022-08-16T19:35:47.566Z,2.75
2022-08-16T19:40:44.014Z,3.43
2022-08-16T19:45:45.808Z,3.30
2022-08-16T19:50:42.574Z,3.13
2022-08-16T19:55:39.195Z,2.93
2022-08-16T20:00:37.259Z,2.87
2022-08-16T20:05:34.131Z,3.30
2022-08-16T20:10:30.673Z,3.13
2022-08-16T20:15:31.093Z,3.43
2022-08-16T20:20:28.499Z,3.42
2022-08-16T20:25:31.040Z,2.97
2022-08-16T20:30:29.744Z,3.50
2022-08-16T20:35:27.824Z,3.50
2022-08-16T20:40:34.089Z,4.13
2022-08-16T20:45:31.670Z,4.45
2022-08-16T20:50:28.558Z,4.18
2022-08-16T20:55:26.199Z,3.67
2022-08-16T21:00:25.284Z,4.07
2022-08-16T21:05:25.884Z,4.07
2022-08-16T21:10:27.652Z,4.35
2022-08-16T21:15:26.632Z,3.47
2022-08-16T21:20:25.978Z,4.45
2022-08-16T21:25:23.645Z,4.60
2022-08-16T21:30:23.989Z,4.68
2022-08-16T21:35:26.622Z,5.65
2022-08-16T21:40:24.322Z,4.57
2022-08-16T21:45:21.269Z,4.70
2022-08-16T21:50:17.688Z,4.85
2022-08-16T21:55:16.458Z,5.38
2022-08-16T22:00:14.383Z,5.88
2022-08-16T22:05:10.831Z,5.88
2022-08-16T22:11:06.603Z,5.38
2022-08-16T22:15:25.614Z,6.45
2022-08-16T22:20:24.493Z,5.60
2022-08-16T22:25:21.845Z,6.38
2022-08-16T22:35:15.279Z,5.33
2022-08-16T22:40:12.731Z,5.10
2022-08-16T22:45:09.818Z,6.03
2022-08-16T22:50:09.660Z,5.55
2022-08-16T22:55:06.471Z,5.63
2022-08-16T23:00:05.969Z,5.77
2022-08-16T23:05:02.393Z,5.22
2022-08-16T23:10:01.458Z,5.35
2022-08-16T23:15:02.737Z,6.10
2022-08-16T23:20:00.236Z,6.07
2022-08-16T23:24:57.736Z,5.97
2022-08-16T23:29:54.052Z,6.60
2022-08-16T23:34:50.486Z,6.43
2022-08-16T23:39:49.477Z,6.50
2022-08-16T23:44:58.294Z,7.18
2022-08-16T23:49:59.977Z,6.93
2022-08-16T23:55:03.750Z,7.68
